createdAt,value
2018-11-02T00:01:46.397Z,11.28
2018-11-02T00:04:15.159Z,18.40
2018-11-02T00:06:43.630Z,16.80
2018-11-02T00:09:12.126Z,21.20
2018-11-02T00:11:40.617Z,15.23
2018-11-02T00:14:09.092Z,9.50
2018-11-02T00:16:37.585Z,16.83
2018-11-02T00:19:06.512Z,12.40
2018-11-02T00:21:35.000Z,15.17
2018-11-02T00:24:03.715Z,14.00
2018-11-02T00:26:32.228Z,9.27
2018-11-02T00:29:00.700Z,15.37
2018-11-02T00:31:29.307Z,19.60
2018-11-02T00:33:57.764Z,11.83
2018-11-02T00:36:26.244Z,16.83
2018-11-02T00:38:54.731Z,16.43
2018-11-02T00:41:23.242Z,16.83
2018-11-02T00:43:51.773Z,9.57
2018-11-02T00:46:20.335Z,12.60
2018-11-02T00:48:48.843Z,10.53
2018-11-02T00:51:17.327Z,15.20
2018-11-02T00:53:45.819Z,15.80
2018-11-02T00:56:14.303Z,27.93
2018-11-02T00:58:42.795Z,15.60
2018-11-02T01:01:11.285Z,16.65
2018-11-02T01:03:39.843Z,15.93
2018-11-02T01:06:08.323Z,13.27
2018-11-02T01:08:36.828Z,18.80
2018-11-02T01:11:05.847Z,13.13
2018-11-02T01:13:34.557Z,12.70
2018-11-02T01:16:03.267Z,24.27
2018-11-02T01:18:31.753Z,17.60
2018-11-02T01:21:00.241Z,13.53
2018-11-02T01:23:28.696Z,16.23
2018-11-02T01:25:57.241Z,15.13
2018-11-02T01:28:25.763Z,9.77
2018-11-02T01:30:54.239Z,13.10
2018-11-02T01:33:28.034Z,14.87
2018-11-02T01:35:56.715Z,18.60
2018-11-02T01:38:25.195Z,12.00
2018-11-02T01:40:53.652Z,37.23
2018-11-02T01:43:22.578Z,14.90
2018-11-02T01:45:51.870Z,12.75
2018-11-02T01:48:20.393Z,20.37
2018-11-02T01:51:03.579Z,19.03
2018-11-02T01:53:32.116Z,18.12
2018-11-02T01:56:00.615Z,23.17
2018-11-02T01:58:29.643Z,25.17
2018-11-02T02:00:58.144Z,11.27
2018-11-02T02:04:29.339Z,13.93
2018-11-02T02:06:57.940Z,15.93
2018-11-02T02:09:26.440Z,11.80
2018-11-02T02:11:55.035Z,20.20
2018-11-02T02:14:23.599Z,15.30
2018-11-02T02:16:52.732Z,26.47
2018-11-02T02:19:21.290Z,16.80
2018-11-02T02:21:49.837Z,15.90
2018-11-02T02:24:18.316Z,18.63
2018-11-02T02:26:46.841Z,20.60
2018-11-02T02:29:15.460Z,13.40
2018-11-02T02:31:43.940Z,31.73
2018-11-02T02:34:12.836Z,13.53
2018-11-02T02:36:41.644Z,17.30
2018-11-02T02:39:10.938Z,15.80
2018-11-02T02:41:40.010Z,17.70
2018-11-02T02:44:08.747Z,20.13
2018-11-02T02:46:37.267Z,14.23
2018-11-02T02:49:06.688Z,14.50
2018-11-02T02:51:35.201Z,18.00
2018-11-02T02:54:04.123Z,17.67
2018-11-02T02:56:32.632Z,15.03
2018-11-02T02:59:01.368Z,11.80
2018-11-02T03:01:29.887Z,14.17
2018-11-02T03:03:58.391Z,22.60
2018-11-02T03:06:27.139Z,25.00
2018-11-02T03:08:56.015Z,17.00
2018-11-02T03:11:24.801Z,15.80
2018-11-02T03:13:53.291Z,13.90
2018-11-02T03:16:21.911Z,24.03
2018-11-02T03:18:50.493Z,16.27
2018-11-02T03:21:18.962Z,12.25
2018-11-02T03:23:47.475Z,34.43
2018-11-02T03:26:15.971Z,20.23
2018-11-02T03:28:44.468Z,17.40
2018-11-02T03:31:13.068Z,17.83
2018-11-02T03:33:41.737Z,12.57
2018-11-02T03:36:10.266Z,16.77
2018-11-02T03:38:38.858Z,11.28
2018-11-02T03:41:07.554Z,15.00
2018-11-02T03:43:36.085Z,23.23
2018-11-02T03:46:04.915Z,17.47
2018-11-02T03:48:33.708Z,18.23
2018-11-02T03:51:02.245Z,14.20
2018-11-02T03:53:30.730Z,12.70
2018-11-02T03:55:59.743Z,12.27
2018-11-02T03:58:28.236Z,15.57
2018-11-02T04:00:57.047Z,13.50
2018-11-02T04:03:25.535Z,15.57
2018-11-02T04:05:54.084Z,17.47
2018-11-02T04:08:22.689Z,18.37
2018-11-02T04:10:51.141Z,21.60
2018-11-02T04:13:19.690Z,14.10
2018-11-02T04:15:48.224Z,15.77
2018-11-02T04:18:16.722Z,15.80
2018-11-02T04:20:45.288Z,16.40
2018-11-02T04:23:13.801Z,16.17
2018-11-02T04:25:42.725Z,12.27
2018-11-02T04:28:11.268Z,23.60
2018-11-02T04:30:39.798Z,16.77
2018-11-02T04:33:08.511Z,14.53
2018-11-02T04:35:37.196Z,20.10
2018-11-02T04:38:06.147Z,21.50
2018-11-02T04:40:34.703Z,16.75
2018-11-02T04:43:03.184Z,8.87
2018-11-02T04:45:36.885Z,10.60
2018-11-02T04:48:05.953Z,15.17
2018-11-02T04:50:34.515Z,15.43
2018-11-02T04:53:03.791Z,15.57
2018-11-02T04:55:32.276Z,15.25
2018-11-02T04:58:01.099Z,14.83
2018-11-02T05:00:29.772Z,15.83
2018-11-02T05:02:58.707Z,15.63
2018-11-02T05:05:27.367Z,13.67
2018-11-02T05:07:55.868Z,18.48
2018-11-02T05:10:24.331Z,16.90
2018-11-02T05:12:52.837Z,34.27
2018-11-02T05:15:21.302Z,15.90
2018-11-02T05:17:50.039Z,14.30
2018-11-02T05:20:18.550Z,15.60
2018-11-02T05:22:47.055Z,17.73
2018-11-02T05:25:15.675Z,14.03
2018-11-02T05:27:44.516Z,16.17
2018-11-02T05:30:13.086Z,17.17
2018-11-02T05:32:41.581Z,22.37
2018-11-02T05:35:10.126Z,11.53
2018-11-02T05:37:38.604Z,12.83
2018-11-02T05:40:08.494Z,14.40
2018-11-02T05:42:37.010Z,13.80
2018-11-02T05:45:06.764Z,18.02
2018-11-02T05:47:35.431Z,15.35
2018-11-02T05:50:03.933Z,17.63
2018-11-02T05:52:32.627Z,16.43
2018-11-02T05:55:01.348Z,15.70
2018-11-02T05:57:29.825Z,15.67
2018-11-02T05:59:58.379Z,14.60
2018-11-02T06:02:26.853Z,11.43
2018-11-02T06:04:55.990Z,17.10
2018-11-02T06:07:24.489Z,22.83
2018-11-02T06:09:52.968Z,20.17
2018-11-02T06:12:21.511Z,25.20
2018-11-02T06:14:50.008Z,15.33
2018-11-02T06:17:18.667Z,10.93
2018-11-02T06:19:47.287Z,13.98
2018-11-02T06:22:16.215Z,19.80
2018-11-02T06:24:45.020Z,17.93
2018-11-02T06:27:13.591Z,15.60
2018-11-02T06:29:42.138Z,13.60
2018-11-02T06:32:10.629Z,18.83
2018-11-02T06:34:39.412Z,28.10
2018-11-02T06:37:08.256Z,35.08
2018-11-02T06:39:36.762Z,24.33
2018-11-02T06:42:05.660Z,22.90
2018-11-02T06:44:34.366Z,14.77
2018-11-02T06:47:02.882Z,15.60
2018-11-02T06:49:31.363Z,15.50
2018-11-02T06:51:59.815Z,14.40
2018-11-02T06:54:28.301Z,18.77
2018-11-02T06:56:56.801Z,9.37
2018-11-02T06:59:25.533Z,26.73
2018-11-02T07:01:53.917Z,17.40
2018-11-02T07:04:22.375Z,18.60
2018-11-02T07:06:50.924Z,18.43
2018-11-02T07:09:19.407Z,12.60
2018-11-02T07:11:47.892Z,18.40
2018-11-02T07:14:16.437Z,18.03
2018-11-02T07:16:45.371Z,19.83
2018-11-02T07:19:13.840Z,23.63
2018-11-02T07:21:42.346Z,19.97
2018-11-02T07:24:10.894Z,18.20
2018-11-02T07:26:39.375Z,15.00
2018-11-02T07:29:08.956Z,19.12
2018-11-02T07:31:37.501Z,21.97
2018-11-02T07:34:06.782Z,16.90
2018-11-02T07:36:35.362Z,17.57
2018-11-02T07:39:04.631Z,13.40
2018-11-02T07:41:33.096Z,15.00
2018-11-02T07:44:01.607Z,11.53
2018-11-02T07:46:30.070Z,16.73
2018-11-02T07:48:58.572Z,13.95
2018-11-02T07:51:27.229Z,23.13
2018-11-02T07:53:55.934Z,13.80
2018-11-02T07:56:24.459Z,19.30
2018-11-02T07:58:53.327Z,15.83
2018-11-02T08:01:21.985Z,15.70
2018-11-02T08:03:50.501Z,13.70
2018-11-02T08:06:18.974Z,29.67
2018-11-02T08:08:47.936Z,13.97
2018-11-02T08:11:16.534Z,22.90
2018-11-02T08:13:45.009Z,16.40
2018-11-02T08:16:13.519Z,16.83
2018-11-02T08:18:41.977Z,19.00
2018-11-02T08:21:10.453Z,16.93
2018-11-02T08:23:38.918Z,17.80
2018-11-02T08:26:07.443Z,20.53
2018-11-02T08:28:35.929Z,22.13
2018-11-02T08:31:04.421Z,19.20
2018-11-02T08:33:32.893Z,16.43
2018-11-02T08:36:01.517Z,24.72
2018-11-02T08:38:29.984Z,14.90
2018-11-02T08:40:59.140Z,17.87
2018-11-02T08:43:27.579Z,23.13
2018-11-02T08:45:56.219Z,17.23
2018-11-02T08:48:24.669Z,22.20
2018-11-02T08:50:53.133Z,16.07
2018-11-02T08:53:21.631Z,21.53
2018-11-02T08:55:50.184Z,16.53
2018-11-02T08:58:18.834Z,15.43
2018-11-02T09:00:47.427Z,13.33
2018-11-02T09:03:15.899Z,16.50
2018-11-02T09:05:44.375Z,18.43
2018-11-02T09:08:12.839Z,13.70
2018-11-02T09:10:41.294Z,13.53
2018-11-02T09:13:10.088Z,17.42
2018-11-02T09:15:38.600Z,21.73
2018-11-02T09:18:07.092Z,17.90
2018-11-02T09:20:35.680Z,15.90
2018-11-02T09:23:04.133Z,17.10
2018-11-02T09:25:32.665Z,14.47
2018-11-02T09:28:01.420Z,22.15
2018-11-02T09:30:29.847Z,16.42
2018-11-02T09:32:58.422Z,14.27
2018-11-02T09:35:26.900Z,13.62
2018-11-02T09:37:55.390Z,17.07
2018-11-02T09:40:23.945Z,12.27
2018-11-02T09:42:52.535Z,15.30
2018-11-02T09:45:20.826Z,17.93
2018-11-02T09:47:49.314Z,28.80
2018-11-02T09:50:17.794Z,15.20
2018-11-02T09:52:46.308Z,12.43
2018-11-02T09:55:15.887Z,21.65
2018-11-02T09:57:45.642Z,19.57
2018-11-02T10:00:14.852Z,12.55
2018-11-02T10:02:43.371Z,16.33
2018-11-02T10:05:12.683Z,22.80
2018-11-02T10:07:41.749Z,16.20
2018-11-02T10:10:11.873Z,19.57
2018-11-02T10:12:40.646Z,18.60
2018-11-02T10:15:11.962Z,14.87
2018-11-02T10:17:40.486Z,17.97
2018-11-02T10:20:09.937Z,19.42
2018-11-02T10:22:38.711Z,12.13
2018-11-02T10:25:08.158Z,10.70
2018-11-02T10:27:37.013Z,10.63
2018-11-02T10:30:07.643Z,16.30
2018-11-02T10:32:36.175Z,16.47
2018-11-02T10:35:05.016Z,17.80
2018-11-02T10:37:33.684Z,23.85
2018-11-02T10:40:02.404Z,20.10
2018-11-02T10:42:30.962Z,17.40
2018-11-02T10:44:59.592Z,17.73
2018-11-02T10:47:28.036Z,14.10
2018-11-02T10:49:56.554Z,24.27
2018-11-02T10:52:25.047Z,16.90
2018-11-02T10:54:53.608Z,22.10
2018-11-02T10:57:22.100Z,28.00
2018-11-02T10:59:50.578Z,14.17
2018-11-02T11:02:24.868Z,24.80
2018-11-02T11:04:53.348Z,14.80
2018-11-02T11:07:21.914Z,13.10
2018-11-02T11:09:50.421Z,19.17
2018-11-02T11:12:19.092Z,15.07
2018-11-02T11:14:47.764Z,13.47
2018-11-02T11:17:16.427Z,25.97
2018-11-02T11:19:44.923Z,17.80
2018-11-02T11:22:13.464Z,22.67
2018-11-02T11:24:41.946Z,17.30
2018-11-02T11:27:10.530Z,16.07
2018-11-02T11:29:38.987Z,16.57
2018-11-02T11:32:07.754Z,22.03
2018-11-02T11:34:36.235Z,20.70
2018-11-02T11:37:05.292Z,17.40
2018-11-02T11:39:33.887Z,16.03
2018-11-02T11:42:02.335Z,14.60
2018-11-02T11:44:31.059Z,22.10
2018-11-02T11:46:59.870Z,18.60
2018-11-02T11:49:28.428Z,27.57
2018-11-02T11:51:56.944Z,14.60
2018-11-02T11:54:25.817Z,17.02
2018-11-02T11:56:54.491Z,15.47
2018-11-02T11:59:23.018Z,14.30
2018-11-02T12:01:51.515Z,18.10
2018-11-02T12:04:20.314Z,16.83
2018-11-02T12:06:48.949Z,19.07
2018-11-02T12:09:17.426Z,18.20
2018-11-02T12:11:46.031Z,21.30
2018-11-02T12:14:14.836Z,12.95
2018-11-02T12:16:43.377Z,11.27
2018-11-02T12:19:11.907Z,11.67
2018-11-02T12:21:40.446Z,27.07
2018-11-02T12:24:08.923Z,15.10
2018-11-02T12:26:37.480Z,17.43
2018-11-02T12:29:06.397Z,13.10
2018-11-02T12:31:34.904Z,11.50
2018-11-02T12:34:03.381Z,12.30
2018-11-02T12:36:32.207Z,17.87
2018-11-02T12:39:01.421Z,14.00
2018-11-02T12:41:29.922Z,17.67
2018-11-02T12:43:58.464Z,19.33
2018-11-02T12:46:26.969Z,14.60
2018-11-02T12:48:55.759Z,13.77
2018-11-02T12:51:24.107Z,25.43
2018-11-02T12:53:52.657Z,15.53
2018-11-02T12:56:21.854Z,16.50
2018-11-02T12:58:50.511Z,26.40
2018-11-02T13:01:19.000Z,16.60
2018-11-02T13:03:47.477Z,17.70
2018-11-02T13:06:16.152Z,12.00
2018-11-02T13:08:44.686Z,10.13
2018-11-02T13:11:13.200Z,25.30
2018-11-02T13:13:41.750Z,35.37
2018-11-02T13:16:10.476Z,21.70
2018-11-02T13:18:39.088Z,21.77
2018-11-02T13:21:07.623Z,22.60
2018-11-02T13:23:36.162Z,13.95
2018-11-02T13:26:05.165Z,18.53
2018-11-02T13:28:33.988Z,14.10
2018-11-02T13:31:02.557Z,22.00
2018-11-02T13:33:30.977Z,11.90
2018-11-02T13:35:59.561Z,10.53
2018-11-02T13:38:28.016Z,10.43
2018-11-02T13:40:56.512Z,16.67
2018-11-02T13:43:25.009Z,20.50
2018-11-02T13:45:53.449Z,15.10
2018-11-02T13:48:21.976Z,16.50
2018-11-02T13:50:50.532Z,16.67
2018-11-02T13:53:19.007Z,21.10
2018-11-02T13:55:47.518Z,25.20
2018-11-02T13:58:16.179Z,14.03
2018-11-02T14:00:44.683Z,12.28
2018-11-02T14:03:13.188Z,17.73
2018-11-02T14:05:41.863Z,11.03
2018-11-02T14:08:10.380Z,18.00
2018-11-02T14:10:39.060Z,11.43
2018-11-02T14:13:07.592Z,13.10
2018-11-02T14:15:36.065Z,22.13
2018-11-02T14:18:04.572Z,11.23
2018-11-02T14:20:33.088Z,13.58
2018-11-02T14:23:01.594Z,12.17
2018-11-02T14:25:30.347Z,16.70
2018-11-02T14:27:58.948Z,23.03
2018-11-02T14:30:28.391Z,14.57
2018-11-02T14:32:56.864Z,17.23
2018-11-02T14:35:25.406Z,15.30
2018-11-02T14:37:54.187Z,14.10
2018-11-02T14:40:22.696Z,14.80
2018-11-02T14:42:51.433Z,23.27
2018-11-02T14:45:19.941Z,22.63
2018-11-02T14:47:49.372Z,13.70
2018-11-02T14:50:17.924Z,14.63
2018-11-02T14:52:46.479Z,15.60
2018-11-02T14:55:14.983Z,13.57
2018-11-02T14:57:43.514Z,12.30
2018-11-02T15:00:12.780Z,13.90
2018-11-02T15:02:41.981Z,11.77
2018-11-02T15:05:12.540Z,12.70
2018-11-02T15:07:41.894Z,17.80
2018-11-02T15:10:10.615Z,12.93
2018-11-02T15:12:39.888Z,14.10
2018-11-02T15:15:09.128Z,11.57
2018-11-02T15:17:37.635Z,21.13
2018-11-02T15:20:08.655Z,15.30
2018-11-02T15:22:37.517Z,17.10
2018-11-02T15:25:06.870Z,12.20
2018-11-02T15:27:35.400Z,18.50
2018-11-02T15:30:04.210Z,22.53
2018-11-02T15:32:32.736Z,23.20
2018-11-02T15:35:01.189Z,25.13
2018-11-02T15:37:29.728Z,30.37
2018-11-02T15:39:58.532Z,26.47
2018-11-02T15:42:27.000Z,26.33
2018-11-02T15:44:55.483Z,30.70
2018-11-02T15:47:23.967Z,24.70
2018-11-02T15:49:52.501Z,33.60
2018-11-02T15:52:21.159Z,22.73
2018-11-02T15:54:49.695Z,17.13
2018-11-02T15:57:18.203Z,32.10
2018-11-02T15:59:46.899Z,19.52
2018-11-02T16:02:15.393Z,20.68
2018-11-02T16:04:44.186Z,17.10
2018-11-02T16:07:12.740Z,29.83
2018-11-02T16:09:41.462Z,60.73
2018-11-02T16:12:10.183Z,41.83
2018-11-02T16:14:38.754Z,32.00
2018-11-02T16:17:07.227Z,33.53
2018-11-02T16:19:35.951Z,22.40
2018-11-02T16:22:04.494Z,26.10
2018-11-02T16:24:32.996Z,30.80
2018-11-02T16:27:01.444Z,26.57
2018-11-02T16:29:29.937Z,28.87
2018-11-02T16:31:58.442Z,27.65
2018-11-02T16:34:26.917Z,30.03
2018-11-02T16:36:55.441Z,24.10
2018-11-02T16:39:23.920Z,28.20
2018-11-02T16:41:52.409Z,30.48
2018-11-02T16:44:21.011Z,37.47
2018-11-02T16:46:49.384Z,25.83
2018-11-02T16:49:17.922Z,23.90
2018-11-02T16:51:46.408Z,30.77
2018-11-02T16:54:14.923Z,30.47
2018-11-02T16:56:43.492Z,24.47
2018-11-02T16:59:11.976Z,27.70
2018-11-02T17:01:40.777Z,25.13
2018-11-02T17:04:09.483Z,29.67
2018-11-02T17:06:38.014Z,32.20
2018-11-02T17:09:10.108Z,25.80
2018-11-02T17:11:38.700Z,28.02
2018-11-02T17:14:07.832Z,26.33
2018-11-02T17:16:36.684Z,23.80
2018-11-02T17:19:05.604Z,26.13
2018-11-02T17:21:34.133Z,25.27
2018-11-02T17:24:03.436Z,27.13
2018-11-02T17:26:32.274Z,29.97
2018-11-02T17:29:01.246Z,34.30
2018-11-02T17:31:30.087Z,26.47
2018-11-02T17:33:58.535Z,29.25
2018-11-02T17:36:27.230Z,33.93
2018-11-02T17:38:55.562Z,34.97
2018-11-02T17:41:24.219Z,33.67
2018-11-02T17:43:52.690Z,33.33
2018-11-02T17:46:21.301Z,29.57
2018-11-02T17:48:50.054Z,34.87
2018-11-02T17:51:18.487Z,36.73
2018-11-02T17:53:47.312Z,57.63
2018-11-02T17:56:15.861Z,37.13
2018-11-02T17:58:44.619Z,49.63
2018-11-02T18:01:13.258Z,46.17
2018-11-02T18:03:42.114Z,43.13
2018-11-02T18:06:10.591Z,45.60
2018-11-02T18:08:39.194Z,44.47
2018-11-02T18:11:07.748Z,45.38
2018-11-02T18:13:36.566Z,37.23
2018-11-02T18:16:06.038Z,38.02
2018-11-02T18:18:34.872Z,30.03
2018-11-02T18:21:03.912Z,29.90
2018-11-02T18:23:32.397Z,45.98
2018-11-02T18:26:01.144Z,41.13
2018-11-02T18:28:29.658Z,48.50
2018-11-02T18:30:58.401Z,33.80
2018-11-02T18:33:26.923Z,32.87
2018-11-02T18:35:55.547Z,38.53
2018-11-02T18:38:24.524Z,30.17
2018-11-02T18:40:53.022Z,34.00
2018-11-02T18:43:21.474Z,37.97
2018-11-02T18:45:50.224Z,37.67
2018-11-02T18:48:20.615Z,34.98
2018-11-02T18:50:49.379Z,49.30
2018-11-02T18:53:17.861Z,39.03
2018-11-02T18:55:46.359Z,43.87
2018-11-02T18:58:14.842Z,35.15
2018-11-02T19:00:43.830Z,27.37
2018-11-02T19:03:12.301Z,31.12
2018-11-02T19:05:40.809Z,31.17
2018-11-02T19:08:09.247Z,32.50
2018-11-02T19:10:37.768Z,32.80
2018-11-02T19:13:06.968Z,33.40
2018-11-02T19:15:35.446Z,37.20
2018-11-02T19:18:03.950Z,34.50
2018-11-02T19:20:32.478Z,32.93
2018-11-02T19:23:01.410Z,32.50
2018-11-02T19:25:30.132Z,30.23
2018-11-02T19:27:58.586Z,40.33
2018-11-02T19:30:27.117Z,33.17
2018-11-02T19:32:55.738Z,43.73
2018-11-02T19:35:24.719Z,32.50
2018-11-02T19:37:53.169Z,37.90
2018-11-02T19:40:21.754Z,34.40
2018-11-02T19:42:50.276Z,38.90
2018-11-02T19:45:18.818Z,33.80
2018-11-02T19:48:02.849Z,31.55
2018-11-02T19:50:31.424Z,37.97
2018-11-02T19:52:59.836Z,40.25
2018-11-02T19:55:28.579Z,34.17
2018-11-02T19:57:57.095Z,34.80
2018-11-02T20:00:25.719Z,42.83
2018-11-02T20:02:54.219Z,32.80
2018-11-02T20:05:22.696Z,36.23
2018-11-02T20:07:51.203Z,30.63
2018-11-02T20:10:19.716Z,39.40
2018-11-02T20:12:49.069Z,37.30
2018-11-02T20:15:18.066Z,33.33
2018-11-02T20:17:46.923Z,29.60
2018-11-02T20:20:16.403Z,29.87
2018-11-02T20:22:45.134Z,36.37
2018-11-02T20:25:15.264Z,37.20
2018-11-02T20:27:44.352Z,32.00
2018-11-02T20:30:21.511Z,34.17
2018-11-02T20:32:50.048Z,36.87
2018-11-02T20:35:18.560Z,25.87
2018-11-02T20:37:47.060Z,36.30
2018-11-02T20:40:17.602Z,31.80
2018-11-02T20:42:46.544Z,27.93
2018-11-02T20:45:15.679Z,38.50
2018-11-02T20:47:48.200Z,32.47
2018-11-02T20:50:17.251Z,34.17
2018-11-02T20:52:45.771Z,36.63
2018-11-02T20:55:15.164Z,32.87
2018-11-02T20:57:44.066Z,25.63
2018-11-02T21:00:14.736Z,39.33
2018-11-02T21:02:43.906Z,32.13
2018-11-02T21:05:14.464Z,29.37
2018-11-02T21:07:43.577Z,38.88
2018-11-02T21:10:13.512Z,36.20
2018-11-02T21:12:42.304Z,31.20
2018-11-02T21:15:14.091Z,35.90
2018-11-02T21:17:42.721Z,39.73
2018-11-02T21:20:13.406Z,31.77
2018-11-02T21:22:42.809Z,47.80
2018-11-02T21:25:12.394Z,45.45
2018-11-02T21:27:41.819Z,39.90
2018-11-02T21:30:14.759Z,38.43
2018-11-02T21:32:44.158Z,52.50
2018-11-02T21:35:12.661Z,41.28
2018-11-02T21:37:41.168Z,43.97
2018-11-02T21:40:13.709Z,42.17
2018-11-02T21:42:42.792Z,42.78
2018-11-02T21:45:12.151Z,47.10
2018-11-02T21:47:40.612Z,42.78
2018-11-02T21:50:10.140Z,47.80
2018-11-02T21:52:38.632Z,50.80
2018-11-02T21:55:07.804Z,54.17
2018-11-02T21:57:36.636Z,48.15
2018-11-02T22:00:07.039Z,51.20
2018-11-02T22:02:35.766Z,42.35
2018-11-02T22:05:04.349Z,48.40
2018-11-02T22:07:32.870Z,44.13
2018-11-02T22:10:01.468Z,47.77
2018-11-02T22:12:29.980Z,48.67
2018-11-02T22:14:58.456Z,44.10
2018-11-02T22:17:27.244Z,53.03
2018-11-02T22:19:56.041Z,47.00
2018-11-02T22:22:24.592Z,46.57
2018-11-02T22:24:53.287Z,51.48
2018-11-02T22:27:21.912Z,49.10
2018-11-02T22:29:50.354Z,45.30
2018-11-02T22:32:19.024Z,53.53
2018-11-02T22:34:47.543Z,45.43
2018-11-02T22:37:16.114Z,52.03
2018-11-02T22:39:44.692Z,54.93
2018-11-02T22:42:13.191Z,50.30
2018-11-02T22:44:42.075Z,54.80
2018-11-02T22:47:10.863Z,54.73
2018-11-02T22:49:39.321Z,55.70
2018-11-02T22:52:07.842Z,51.10
2018-11-02T22:54:36.522Z,58.20
2018-11-02T22:57:05.063Z,70.53
2018-11-02T22:59:33.571Z,54.70
2018-11-02T23:02:02.097Z,54.47
2018-11-02T23:04:30.766Z,55.53
2018-11-02T23:06:59.312Z,62.87
2018-11-02T23:09:27.814Z,47.33
2018-11-02T23:11:56.330Z,58.57
2018-11-02T23:14:24.799Z,55.83
2018-11-02T23:16:53.337Z,60.47
2018-11-02T23:19:21.877Z,68.17
2018-11-02T23:21:50.300Z,53.23
2018-11-02T23:24:18.859Z,74.37
2018-11-02T23:26:47.317Z,54.00
2018-11-02T23:29:15.850Z,58.37
2018-11-02T23:31:44.360Z,63.37
2018-11-02T23:34:12.820Z,59.20
2018-11-02T23:36:41.345Z,69.67
2018-11-02T23:39:10.253Z,57.50
2018-11-02T23:41:38.886Z,62.13
2018-11-02T23:44:07.384Z,66.00
2018-11-02T23:46:35.915Z,71.10
2018-11-02T23:49:04.455Z,67.73
2018-11-02T23:51:32.951Z,61.02
2018-11-02T23:54:01.706Z,63.47
2018-11-02T23:56:30.276Z,78.03
2018-11-02T23:58:58.795Z,76.70
